Terminal Aerodrome Forecast
Issued by NWS Tampa Bay Area, FL

Home | Current Version | Previous Version | Text Only | Print | Product List | Glossary On
Versions: 1 2 3 4 5 6 7 8 9 10 11 12 13 14 15
000
FTUS42 KTBW 291136
TAFSRQ
TAF
KSRQ 291136Z 2912/3012 12011KT P6SM SCT007 BKN250
     FM291300 14014G22KT P6SM FEW030 SCT250
     FM292000 18014G24KT P6SM FEW110 FEW150
     FM300000 12011KT P6SM FEW080 FEW200=

USA.gov is the U.S. government's official web portal to all federal, state and local government web resources and services.